createdAt,value
2022-12-27T00:01:12.234Z,1.87
2022-12-27T00:03:46.109Z,1.84
2022-12-27T00:06:23.433Z,1.74
2022-12-27T00:08:58.564Z,1.89
2022-12-27T00:11:32.805Z,1.95
2022-12-27T00:14:08.875Z,1.93
2022-12-27T00:16:42.893Z,1.85
2022-12-27T00:19:18.209Z,1.70
2022-12-27T00:21:51.474Z,1.63
2022-12-27T00:24:24.977Z,1.65
2022-12-27T00:26:58.406Z,1.67
2022-12-27T00:29:34.599Z,1.74
2022-12-27T00:32:07.881Z,1.60
2022-12-27T00:34:41.211Z,1.62
2022-12-27T00:37:14.569Z,1.66
2022-12-27T00:39:48.395Z,1.56
2022-12-27T00:42:21.910Z,1.71
2022-12-27T00:44:57.211Z,1.80
2022-12-27T00:47:30.888Z,1.83
2022-12-27T00:50:04.753Z,1.49
2022-12-27T00:52:38.057Z,1.45
2022-12-27T00:55:11.689Z,1.58
2022-12-27T00:57:45.650Z,1.58
2022-12-27T01:00:20.607Z,1.53
2022-12-27T01:02:54.193Z,1.67
2022-12-27T01:05:27.766Z,1.37
2022-12-27T01:08:01.420Z,1.54
2022-12-27T01:10:35.166Z,1.60
2022-12-27T01:13:09.723Z,1.51
2022-12-27T01:15:45.210Z,1.60
2022-12-27T01:18:18.810Z,1.69
2022-12-27T01:20:52.402Z,1.56
2022-12-27T01:23:27.743Z,1.51
2022-12-27T01:26:02.808Z,1.66
2022-12-27T01:28:36.726Z,1.83
2022-12-27T01:31:14.935Z,1.82
2022-12-27T01:33:48.915Z,1.74
2022-12-27T01:36:24.023Z,1.33
2022-12-27T01:38:57.846Z,1.46
2022-12-27T01:41:51.617Z,1.38
2022-12-27T01:44:53.483Z,1.38
2022-12-27T01:47:36.280Z,1.51
2022-12-27T01:50:16.857Z,1.33
2022-12-27T01:52:56.602Z,1.38
2022-12-27T01:55:36.095Z,1.38
2022-12-27T01:58:14.505Z,1.29
2022-12-27T02:00:50.002Z,1.30
2022-12-27T02:03:30.272Z,1.06
2022-12-27T02:06:05.659Z,1.21
2022-12-27T02:08:45.035Z,1.25
2022-12-27T02:11:41.359Z,1.22
2022-12-27T02:14:17.255Z,1.23
2022-12-27T02:16:51.140Z,1.43
2022-12-27T02:19:34.813Z,1.38
2022-12-27T02:22:53.303Z,1.35
2022-12-27T02:25:44.791Z,1.27
2022-12-27T02:28:34.311Z,1.16
2022-12-27T02:31:13.674Z,1.30
2022-12-27T02:33:49.956Z,1.08
2022-12-27T02:36:27.394Z,1.13
2022-12-27T02:39:02.685Z,1.21
2022-12-27T02:41:54.214Z,1.16
2022-12-27T02:44:44.885Z,1.14
2022-12-27T02:47:39.452Z,1.18
2022-12-27T02:50:33.179Z,1.08
2022-12-27T02:53:13.737Z,1.03
2022-12-27T02:56:33.167Z,0.96
2022-12-27T02:59:21.433Z,0.91
2022-12-27T03:02:19.247Z,0.97
2022-12-27T03:05:07.548Z,0.92
2022-12-27T03:07:49.707Z,1.04
2022-12-27T03:10:50.317Z,1.13
2022-12-27T03:13:50.956Z,0.99
2022-12-27T03:16:28.029Z,0.75
2022-12-27T03:19:09.175Z,0.84
2022-12-27T03:22:16.884Z,0.87
2022-12-27T03:25:07.320Z,1.08
2022-12-27T03:27:44.372Z,0.99
2022-12-27T03:30:46.872Z,1.10
2022-12-27T03:33:20.563Z,0.92
2022-12-27T03:36:15.486Z,0.97
2022-12-27T03:38:56.327Z,0.88
2022-12-27T03:41:54.452Z,1.04
2022-12-27T03:44:28.966Z,1.11
2022-12-27T03:47:08.055Z,1.26
2022-12-27T03:49:47.221Z,1.13
2022-12-27T03:52:26.507Z,1.11
2022-12-27T03:55:02.196Z,0.98
2022-12-27T03:57:35.978Z,0.99
2022-12-27T04:00:11.002Z,0.97
2022-12-27T04:02:44.428Z,1.04
2022-12-27T04:05:18.002Z,1.11
2022-12-27T04:08:08.839Z,1.05
2022-12-27T04:11:01.201Z,1.21
2022-12-27T04:13:52.527Z,1.07
2022-12-27T04:16:43.959Z,1.07
2022-12-27T04:19:34.333Z,0.89
2022-12-27T04:22:25.033Z,1.14
2022-12-27T04:25:15.802Z,1.03
2022-12-27T04:28:08.348Z,0.95
2022-12-27T04:30:59.007Z,0.95
2022-12-27T04:33:49.872Z,0.79
2022-12-27T04:36:23.839Z,0.97
2022-12-27T04:38:57.162Z,1.04
2022-12-27T04:41:47.869Z,1.12
2022-12-27T04:44:39.900Z,1.24
2022-12-27T04:47:32.213Z,1.29
2022-12-27T04:50:28.640Z,1.05
2022-12-27T04:53:19.552Z,0.86
2022-12-27T04:55:52.804Z,0.59
2022-12-27T04:58:26.169Z,0.84
2022-12-27T05:01:20.468Z,0.98
2022-12-27T05:03:54.614Z,1.11
2022-12-27T05:06:28.031Z,0.63
2022-12-27T05:09:23.182Z,0.60
2022-12-27T05:12:14.372Z,0.93
2022-12-27T05:14:48.071Z,0.86
2022-12-27T05:17:23.412Z,0.93
2022-12-27T05:19:56.779Z,1.05
2022-12-27T05:22:47.436Z,1.17
2022-12-27T05:25:35.614Z,1.16
2022-12-27T05:28:11.170Z,1.01
2022-12-27T05:30:45.098Z,1.11
2022-12-27T05:33:19.825Z,0.91
2022-12-27T05:35:53.587Z,0.77
2022-12-27T05:38:27.610Z,0.69
2022-12-27T05:41:01.330Z,0.88
2022-12-27T05:43:35.597Z,0.93
2022-12-27T05:46:11.556Z,1.10
2022-12-27T05:48:46.540Z,0.79
2022-12-27T05:51:21.883Z,0.93
2022-12-27T05:53:55.161Z,1.04
2022-12-27T05:56:28.549Z,0.69
2022-12-27T05:59:02.009Z,0.75
2022-12-27T06:01:35.563Z,0.78
2022-12-27T06:04:10.848Z,0.83
2022-12-27T06:06:44.663Z,1.07
2022-12-27T06:09:17.679Z,1.18
2022-12-27T06:11:51.780Z,1.17
2022-12-27T06:14:25.234Z,1.03
2022-12-27T06:16:59.176Z,1.00
2022-12-27T06:19:33.890Z,0.98
2022-12-27T06:22:07.397Z,0.88
2022-12-27T06:24:40.837Z,0.96
2022-12-27T06:27:14.843Z,1.07
2022-12-27T06:29:49.773Z,0.96
2022-12-27T06:32:24.285Z,0.97
2022-12-27T06:34:58.957Z,0.98
2022-12-27T06:37:32.887Z,1.00
2022-12-27T06:40:08.016Z,1.03
2022-12-27T06:42:48.843Z,1.04
2022-12-27T06:45:22.333Z,0.93
2022-12-27T06:47:56.783Z,1.02
2022-12-27T06:50:31.656Z,1.02
2022-12-27T06:53:06.164Z,1.03
2022-12-27T06:55:40.345Z,1.04
2022-12-27T06:58:15.084Z,1.09
2022-12-27T07:00:48.616Z,1.11
2022-12-27T07:03:22.597Z,1.21
2022-12-27T07:05:57.743Z,1.43
2022-12-27T07:08:31.831Z,1.29
2022-12-27T07:11:07.882Z,1.30
2022-12-27T07:13:44.274Z,1.18
2022-12-27T07:16:23.157Z,1.46
2022-12-27T07:18:58.923Z,1.61
2022-12-27T07:21:37.878Z,1.60
2022-12-27T07:24:11.497Z,1.74
2022-12-27T07:26:44.966Z,1.74
2022-12-27T07:29:18.649Z,1.83
2022-12-27T07:31:52.187Z,2.00
2022-12-27T07:34:26.147Z,2.11
2022-12-27T07:37:01.363Z,2.15
2022-12-27T07:39:35.354Z,2.25
2022-12-27T07:42:09.310Z,2.34
2022-12-27T07:44:42.949Z,2.44
2022-12-27T07:47:16.964Z,2.48
2022-12-27T07:49:51.251Z,2.56
2022-12-27T07:52:27.104Z,2.77
2022-12-27T07:55:00.782Z,2.91
2022-12-27T07:57:34.311Z,3.05
2022-12-27T08:00:09.460Z,3.20
2022-12-27T08:02:43.731Z,3.35
2022-12-27T08:05:20.361Z,3.48
2022-12-27T08:08:01.368Z,3.60
2022-12-27T08:10:36.172Z,3.65
2022-12-27T08:13:10.727Z,3.81
2022-12-27T08:15:45.220Z,3.92
2022-12-27T08:18:18.702Z,3.90
2022-12-27T08:20:52.537Z,4.01
2022-12-27T08:23:27.458Z,4.24
2022-12-27T08:26:00.963Z,4.35
2022-12-27T08:28:34.697Z,4.49
2022-12-27T08:31:09.352Z,4.59
2022-12-27T08:33:43.062Z,4.66
2022-12-27T08:39:12.452Z,4.76
2022-12-27T08:41:45.871Z,4.97
2022-12-27T08:44:19.917Z,5.09
2022-12-27T08:46:53.417Z,5.14
2022-12-27T08:49:26.852Z,5.34
2022-12-27T08:52:00.363Z,5.45
2022-12-27T08:54:35.212Z,5.55
2022-12-27T08:57:08.544Z,5.62
2022-12-27T08:59:41.968Z,5.80
2022-12-27T09:02:15.579Z,5.89
2022-12-27T09:04:50.809Z,5.81
2022-12-27T09:07:24.050Z,6.06
2022-12-27T09:09:59.055Z,6.10
2022-12-27T09:12:34.171Z,6.14
2022-12-27T09:15:09.680Z,6.24
2022-12-27T09:17:43.402Z,6.33
2022-12-27T09:20:16.696Z,6.42
2022-12-27T09:22:50.159Z,6.42
2022-12-27T09:25:25.098Z,6.54
2022-12-27T09:28:00.034Z,6.51
2022-12-27T09:30:33.569Z,6.59
2022-12-27T09:33:06.949Z,6.67
2022-12-27T09:35:40.321Z,6.83
2022-12-27T09:38:13.641Z,6.98
2022-12-27T09:40:55.583Z,7.01
2022-12-27T09:43:38.748Z,7.03
2022-12-27T09:46:18.343Z,7.11
2022-12-27T09:48:53.833Z,7.19
2022-12-27T09:51:33.636Z,7.31
2022-12-27T09:54:14.997Z,7.47
2022-12-27T09:57:18.850Z,7.37
2022-12-27T09:59:49.062Z,7.58
2022-12-27T10:02:25.283Z,7.65
2022-12-27T10:05:19.943Z,7.63
2022-12-27T10:08:12.020Z,7.67
2022-12-27T10:10:55.113Z,7.79
2022-12-27T10:13:43.104Z,7.77
2022-12-27T10:16:25.450Z,7.91
2022-12-27T10:19:25.904Z,8.05
2022-12-27T10:22:26.475Z,8.05
2022-12-27T10:25:15.083Z,8.19
2022-12-27T10:27:59.747Z,8.36
2022-12-27T10:30:41.530Z,8.45
2022-12-27T10:33:29.455Z,8.54
2022-12-27T10:36:16.237Z,8.52
2022-12-27T10:38:49.897Z,8.53
2022-12-27T10:41:45.168Z,8.63
2022-12-27T10:44:18.634Z,8.53
2022-12-27T10:46:56.350Z,8.35
2022-12-27T10:49:31.636Z,8.66
2022-12-27T10:52:10.161Z,8.35
2022-12-27T10:54:53.301Z,8.72
2022-12-27T10:57:28.761Z,8.76
2022-12-27T11:00:20.481Z,8.59
2022-12-27T11:02:57.382Z,8.71
2022-12-27T11:05:37.129Z,8.70
2022-12-27T11:08:20.968Z,8.67
2022-12-27T11:11:13.310Z,8.62
2022-12-27T11:13:48.318Z,8.74
2022-12-27T11:16:30.393Z,8.94
2022-12-27T11:19:05.768Z,8.96
2022-12-27T11:21:40.393Z,8.92
2022-12-27T11:24:17.412Z,8.99
2022-12-27T11:26:54.261Z,9.02
2022-12-27T11:29:30.802Z,8.98
2022-12-27T11:32:08.893Z,9.11
2022-12-27T11:34:49.099Z,9.10
2022-12-27T11:37:25.536Z,8.99
2022-12-27T11:40:22.425Z,9.02
2022-12-27T11:43:04.798Z,9.01
2022-12-27T11:45:41.707Z,9.11
2022-12-27T11:48:25.591Z,9.04
2022-12-27T11:51:23.378Z,9.26
2022-12-27T11:54:15.059Z,9.29
2022-12-27T11:56:54.130Z,9.37
2022-12-27T11:59:40.838Z,9.58
2022-12-27T12:02:37.307Z,9.64
2022-12-27T12:05:48.248Z,9.72
2022-12-27T12:08:49.813Z,9.99
2022-12-27T12:11:34.738Z,10.07
2022-12-27T12:14:36.500Z,10.52
2022-12-27T12:17:32.458Z,10.92
2022-12-27T12:20:33.263Z,10.98
2022-12-27T12:23:14.936Z,11.06
2022-12-27T12:26:15.890Z,11.14
2022-12-27T12:29:19.281Z,11.08
2022-12-27T12:32:31.554Z,10.95
2022-12-27T12:35:24.267Z,10.88
2022-12-27T12:38:12.290Z,10.89
2022-12-27T12:41:27.042Z,10.66
2022-12-27T12:44:41.483Z,10.92
2022-12-27T12:47:31.041Z,10.93
2022-12-27T12:50:24.435Z,11.18
2022-12-27T12:53:11.195Z,11.19
2022-12-27T12:55:55.293Z,11.18
2022-12-27T12:58:51.459Z,11.65
2022-12-27T13:01:43.766Z,11.76
2022-12-27T13:04:38.340Z,11.64
2022-12-27T13:07:41.493Z,10.99
2022-12-27T13:10:40.801Z,11.39
2022-12-27T13:13:24.278Z,11.80
2022-12-27T13:16:15.772Z,11.91
2022-12-27T13:19:01.528Z,12.14
2022-12-27T13:21:54.738Z,12.26
2022-12-27T13:24:43.699Z,12.38
2022-12-27T13:27:24.040Z,12.52
2022-12-27T13:30:07.231Z,12.35
2022-12-27T13:32:57.441Z,12.36
2022-12-27T13:35:42.667Z,12.44
2022-12-27T13:38:33.319Z,12.42
2022-12-27T13:41:30.150Z,12.38
2022-12-27T13:44:35.701Z,12.31
2022-12-27T13:47:35.487Z,12.33
2022-12-27T13:50:43.714Z,12.31
2022-12-27T13:53:37.664Z,12.22
2022-12-27T13:56:52.600Z,12.20
2022-12-27T13:59:43.360Z,11.87
2022-12-27T14:02:34.747Z,11.79
2022-12-27T14:05:48.192Z,11.55
2022-12-27T14:08:34.274Z,11.44
2022-12-27T14:11:21.046Z,11.30
2022-12-27T14:13:57.160Z,11.14
2022-12-27T14:16:43.160Z,11.03
2022-12-27T14:19:40.857Z,10.89
2022-12-27T14:22:49.691Z,10.57
2022-12-27T14:26:00.672Z,10.48
2022-12-27T14:29:01.261Z,10.36
2022-12-27T14:31:57.688Z,10.13
2022-12-27T14:35:01.300Z,10.00
2022-12-27T14:37:53.864Z,9.98
2022-12-27T14:40:51.495Z,9.83
2022-12-27T14:43:51.863Z,9.75
2022-12-27T14:47:04.793Z,9.58
2022-12-27T14:50:24.014Z,9.51
2022-12-27T14:53:32.657Z,9.44
2022-12-27T14:56:20.247Z,9.32
2022-12-27T14:59:14.802Z,9.26
2022-12-27T15:01:57.359Z,9.27
2022-12-27T15:05:07.819Z,9.13
2022-12-27T15:08:20.481Z,9.15
2022-12-27T15:11:04.903Z,8.87
2022-12-27T15:13:53.580Z,9.03
2022-12-27T15:16:39.470Z,8.85
2022-12-27T15:19:32.227Z,8.92
2022-12-27T15:22:16.847Z,8.83
2022-12-27T15:24:54.465Z,8.77
2022-12-27T15:27:34.305Z,8.77
2022-12-27T15:30:22.226Z,8.73
2022-12-27T15:33:05.033Z,8.70
2022-12-27T15:35:56.093Z,8.64
2022-12-27T15:38:53.475Z,8.62
2022-12-27T15:41:58.767Z,8.56
2022-12-27T15:44:51.889Z,8.57
2022-12-27T15:47:52.258Z,8.45
2022-12-27T15:50:45.528Z,8.50
2022-12-27T15:53:38.607Z,8.49
2022-12-27T15:56:24.926Z,8.49
2022-12-27T15:59:37.024Z,8.45
2022-12-27T16:02:32.890Z,8.44
2022-12-27T16:05:13.637Z,8.43
2022-12-27T16:07:50.154Z,8.42
2022-12-27T16:10:51.114Z,8.32
2022-12-27T16:13:43.665Z,8.37
2022-12-27T16:16:51.984Z,8.33
2022-12-27T16:20:07.400Z,8.28
2022-12-27T16:22:42.999Z,8.31
2022-12-27T16:25:30.621Z,8.10
2022-12-27T16:28:11.027Z,8.46
2022-12-27T16:30:48.223Z,8.62
2022-12-27T16:33:37.627Z,8.66
2022-12-27T16:36:20.032Z,8.93
2022-12-27T16:39:22.948Z,9.44
2022-12-27T16:42:02.984Z,9.49
2022-12-27T16:44:57.481Z,9.90
2022-12-27T16:47:57.092Z,10.06
2022-12-27T16:51:03.281Z,10.20
2022-12-27T16:53:52.841Z,10.03
2022-12-27T16:56:28.591Z,10.19
2022-12-27T16:59:01.973Z,10.18
2022-12-27T17:02:00.576Z,9.71
2022-12-27T17:05:00.444Z,10.19
2022-12-27T17:07:46.958Z,10.10
2022-12-27T17:10:58.268Z,10.02
2022-12-27T17:13:42.160Z,9.97
2022-12-27T17:16:23.870Z,9.85
2022-12-27T17:19:02.836Z,9.83
2022-12-27T17:21:38.677Z,10.07
2022-12-27T17:24:17.679Z,10.24
2022-12-27T17:27:06.392Z,10.41
2022-12-27T17:29:55.768Z,10.40
2022-12-27T17:32:45.828Z,10.46
2022-12-27T17:35:29.529Z,10.45
2022-12-27T17:38:16.114Z,10.36
2022-12-27T17:41:01.417Z,10.26
2022-12-27T17:44:05.000Z,10.15
2022-12-27T17:46:47.071Z,10.08
2022-12-27T17:49:27.728Z,9.98
2022-12-27T17:52:20.616Z,9.84
2022-12-27T17:55:25.586Z,9.65
2022-12-27T17:58:01.979Z,9.61
2022-12-27T18:00:37.964Z,9.47
2022-12-27T18:03:15.362Z,9.38
2022-12-27T18:05:49.536Z,9.29
2022-12-27T18:08:29.656Z,9.20
2022-12-27T18:11:05.369Z,9.08
2022-12-27T18:13:40.847Z,9.00
2022-12-27T18:16:17.880Z,8.86
2022-12-27T18:18:53.882Z,8.80
2022-12-27T18:21:30.095Z,8.63
2022-12-27T18:24:25.165Z,8.72
2022-12-27T18:27:04.622Z,8.73
2022-12-27T18:29:38.217Z,8.62
2022-12-27T18:32:14.403Z,8.62
2022-12-27T18:34:52.460Z,8.51
2022-12-27T18:37:27.184Z,8.36
2022-12-27T18:40:05.279Z,8.18
2022-12-27T18:42:44.780Z,8.04
2022-12-27T18:45:23.145Z,8.00
2022-12-27T18:48:00.287Z,7.95
2022-12-27T18:50:35.663Z,7.72
2022-12-27T18:53:24.587Z,7.71
2022-12-27T18:56:01.883Z,7.65
2022-12-27T18:58:36.086Z,7.63
2022-12-27T19:01:30.616Z,7.48
2022-12-27T19:04:21.016Z,7.55
2022-12-27T19:07:09.823Z,7.50
2022-12-27T19:09:55.081Z,7.46
2022-12-27T19:12:35.233Z,7.39
2022-12-27T19:15:17.299Z,7.16
2022-12-27T19:17:54.469Z,7.29
2022-12-27T19:20:30.477Z,7.22
2022-12-27T19:23:08.860Z,7.23
2022-12-27T19:25:43.843Z,7.21
2022-12-27T19:28:27.805Z,7.03
2022-12-27T19:31:18.540Z,7.13
2022-12-27T19:33:55.704Z,7.07
2022-12-27T19:36:32.590Z,7.04
2022-12-27T19:39:12.430Z,7.06
2022-12-27T19:41:45.845Z,7.05
2022-12-27T19:44:21.059Z,7.03
2022-12-27T19:46:54.381Z,7.04
2022-12-27T19:49:44.608Z,7.01
2022-12-27T19:52:20.858Z,6.98
2022-12-27T19:55:01.414Z,6.94
2022-12-27T19:57:35.132Z,6.94
2022-12-27T20:00:15.392Z,6.92
2022-12-27T20:02:48.850Z,6.91
2022-12-27T20:06:12.569Z,6.91
2022-12-27T20:08:25.558Z,6.92
2022-12-27T20:10:59.190Z,6.89
2022-12-27T20:13:33.485Z,6.55
2022-12-27T20:16:10.939Z,6.78
2022-12-27T20:18:44.991Z,6.84
2022-12-27T20:21:20.103Z,6.77
2022-12-27T20:23:53.540Z,6.76
2022-12-27T20:26:26.973Z,6.68
2022-12-27T20:29:01.212Z,6.61
2022-12-27T20:31:43.863Z,6.52
2022-12-27T20:34:18.023Z,6.51
2022-12-27T20:36:55.106Z,6.48
2022-12-27T20:39:28.748Z,6.40
2022-12-27T20:42:02.424Z,6.41
2022-12-27T20:44:35.704Z,6.42
2022-12-27T20:47:10.393Z,6.22
2022-12-27T20:49:43.852Z,6.24
2022-12-27T20:52:17.442Z,6.31
2022-12-27T20:54:51.084Z,6.25
2022-12-27T20:57:24.941Z,6.30
2022-12-27T20:59:58.158Z,6.36
2022-12-27T21:02:32.961Z,6.39
2022-12-27T21:05:07.359Z,6.42
2022-12-27T21:07:40.725Z,6.39
2022-12-27T21:10:14.454Z,6.33
2022-12-27T21:12:48.973Z,6.43
2022-12-27T21:15:24.255Z,6.43
2022-12-27T21:17:58.961Z,6.41
2022-12-27T21:20:32.216Z,6.45
2022-12-27T21:23:05.687Z,6.44
2022-12-27T21:25:39.773Z,6.43
2022-12-27T21:28:13.272Z,6.38
2022-12-27T21:30:56.412Z,6.35
2022-12-27T21:33:31.810Z,6.28
2022-12-27T21:36:07.621Z,6.19
2022-12-27T21:38:41.087Z,6.24
2022-12-27T21:41:16.321Z,6.23
2022-12-27T21:43:50.375Z,6.24
2022-12-27T21:46:25.635Z,6.24
2022-12-27T21:49:02.416Z,6.24
2022-12-27T21:51:36.766Z,6.21
2022-12-27T21:54:10.745Z,6.13
2022-12-27T21:56:44.116Z,6.10
2022-12-27T21:59:17.397Z,6.13
2022-12-27T22:01:52.534Z,6.14
2022-12-27T22:04:27.784Z,6.10
2022-12-27T22:07:01.421Z,6.08
2022-12-27T22:09:34.751Z,6.07
2022-12-27T22:12:08.861Z,6.06
2022-12-27T22:14:42.869Z,6.04
2022-12-27T22:17:17.735Z,5.86
2022-12-27T22:19:52.659Z,5.90
2022-12-27T22:22:26.078Z,5.81
2022-12-27T22:24:59.819Z,5.75
2022-12-27T22:27:33.276Z,5.82
2022-12-27T22:30:07.781Z,5.81
2022-12-27T22:32:41.095Z,5.82
2022-12-27T22:35:16.263Z,5.68
2022-12-27T22:37:49.863Z,5.54
2022-12-27T22:40:31.037Z,5.65
2022-12-27T22:43:15.639Z,5.54
2022-12-27T22:45:53.773Z,5.50
2022-12-27T22:48:27.348Z,5.73
2022-12-27T22:51:07.417Z,5.71
2022-12-27T22:53:41.379Z,5.82
2022-12-27T22:56:16.311Z,5.74
2022-12-27T22:58:50.116Z,5.79
2022-12-27T23:01:27.652Z,5.72
2022-12-27T23:04:02.489Z,5.77
2022-12-27T23:06:37.858Z,5.75
2022-12-27T23:09:11.704Z,5.88
2022-12-27T23:11:48.271Z,5.87
2022-12-27T23:14:21.952Z,5.87
2022-12-27T23:16:55.608Z,5.88
2022-12-27T23:19:28.890Z,5.78
2022-12-27T23:22:03.566Z,5.86
2022-12-27T23:24:37.100Z,5.79
2022-12-27T23:27:10.844Z,5.65
2022-12-27T23:29:44.383Z,5.77
2022-12-27T23:32:17.611Z,5.82
2022-12-27T23:34:52.570Z,5.85
2022-12-27T23:37:27.179Z,5.90
2022-12-27T23:40:00.513Z,5.91
2022-12-27T23:42:34.157Z,5.92
2022-12-27T23:45:08.641Z,5.88
2022-12-27T23:47:41.837Z,5.99
2022-12-27T23:50:20.736Z,6.01
2022-12-27T23:52:55.767Z,6.02
2022-12-27T23:55:29.477Z,6.00
2022-12-27T23:58:03.103Z,6.05
